Time;durP1;ratioP1;P1;durP2;ratioP2;P2;SDS_P1;SDS_P2;PMS_P1;PMS_P2;Temp;Humidity;BMP_temperature;BMP_pressure;BME280_temperature;BME280_humidity;BME280_pressure;Samples;Min_cycle;Max_cycle;Signal;HPM_P1;HPM_P2
2023/07/20 00:01:46;;;;;;;1.08;0.70;;;25.50;46.60;;;;;;5038790;28;20025;-62
2023/07/20 00:04:13;;;;;;;2.10;1.10;;;25.50;46.60;;;;;;5041171;28;20041;-64
2023/07/20 00:06:40;;;;;;;1.35;0.80;;;25.50;46.70;;;;;;5045587;28;20080;-62
2023/07/20 00:09:09;;;;;;;0.88;0.70;;;25.50;46.70;;;;;;5042100;28;20100;-62
2023/07/20 00:11:38;;;;;;;1.83;1.05;;;25.50;47.30;;;;;;5038669;28;20033;-63
2023/07/20 00:14:05;;;;;;;1.33;0.80;;;25.50;46.70;;;;;;5039139;28;20029;-60
2023/07/20 00:16:31;;;;;;;1.73;0.90;;;25.50;46.70;;;;;;5035270;28;20032;-63
2023/07/20 00:18:58;;;;;;;1.63;0.85;;;25.50;46.70;;;;;;5044855;28;20118;-62
2023/07/20 00:21:23;;;;;;;0.90;0.60;;;25.40;46.60;;;;;;5039536;28;20110;-61
2023/07/20 00:23:49;;;;;;;1.50;0.80;;;25.40;46.60;;;;;;5042118;28;20097;-63
2023/07/20 00:26:15;;;;;;;1.25;0.80;;;25.40;46.70;;;;;;5038322;28;20047;-60
2023/07/20 00:28:43;;;;;;;1.05;0.80;;;25.40;46.70;;;;;;5040192;28;20120;-61
2023/07/20 00:31:09;;;;;;;2.10;1.00;;;25.40;46.70;;;;;;5015640;28;20203;-63
2023/07/20 00:33:36;;;;;;;1.42;0.73;;;25.40;46.70;;;;;;5022240;28;20410;-62
2023/07/20 00:36:02;;;;;;;1.30;0.60;;;25.40;46.80;;;;;;5035889;28;20101;-61
2023/07/20 00:38:28;;;;;;;1.13;0.70;;;25.40;46.80;;;;;;5015253;28;20056;-61
2023/07/20 00:40:54;;;;;;;1.58;0.80;;;25.40;46.80;;;;;;5045452;28;20436;-63
2023/07/20 00:43:20;;;;;;;1.60;0.82;;;25.40;46.80;;;;;;5037754;28;20093;-62
2023/07/20 00:45:46;;;;;;;1.08;0.73;;;25.40;46.90;;;;;;5045252;28;20167;-64
2023/07/20 00:48:13;;;;;;;1.25;0.88;;;25.40;46.90;;;;;;5016007;28;20033;-62
2023/07/20 00:50:40;;;;;;;1.08;0.60;;;25.40;46.90;;;;;;5041049;28;20033;-62
2023/07/20 00:53:07;;;;;;;1.00;0.68;;;25.30;46.90;;;;;;5018431;28;20033;-65
2023/07/20 00:55:32;;;;;;;1.27;0.80;;;25.30;46.90;;;;;;5034387;28;20401;-62
2023/07/20 00:57:59;;;;;;;0.95;0.65;;;25.30;47.00;;;;;;5018168;28;20079;-61
2023/07/20 01:00:25;;;;;;;1.20;0.60;;;25.30;47.00;;;;;;5021038;28;20024;-65
2023/07/20 01:02:51;;;;;;;1.48;0.80;;;25.30;47.00;;;;;;5021145;28;20025;-62
2023/07/20 01:05:17;;;;;;;0.70;0.50;;;25.30;47.10;;;;;;5016168;28;20029;-61
2023/07/20 01:08:02;;;;;;;0.93;0.65;;;25.30;47.10;;;;;;5021405;28;20113;-62
2023/07/20 01:10:34;;;;;;;;;;;25.30;47.10;;;;;;5039014;28;20017;-61
2023/07/20 01:13:01;;;;;;;1.70;0.65;;;25.30;47.10;;;;;;5043153;28;20312;-65
2023/07/20 01:15:27;;;;;;;1.25;0.70;;;25.30;47.20;;;;;;5034627;28;20055;-62
2023/07/20 01:17:53;;;;;;;1.10;0.70;;;25.30;47.20;;;;;;5019754;28;20037;-62
2023/07/20 01:20:22;;;;;;;0.70;0.50;;;25.30;47.30;;;;;;5020105;28;20128;-61
2023/07/20 01:23:17;;;;;;;1.13;0.60;;;25.30;47.30;;;;;;5021614;28;20109;-64
2023/07/20 01:26:29;;;;;;;1.63;0.80;;;25.30;47.40;;;;;;5027481;28;20031;-64
2023/07/20 01:29:13;;;;;;;1.55;0.60;;;25.30;47.40;;;;;;5034647;28;20036;-62
2023/07/20 01:31:39;;;;;;;;;;;25.30;47.40;;;;;;5020002;28;20052;-64
2023/07/20 01:34:08;;;;;;;1.35;0.60;;;25.30;47.50;;;;;;5039165;28;19921;-63
2023/07/20 01:36:37;;;;;;;0.75;0.70;;;25.20;47.50;;;;;;5013540;28;20033;-61
2023/07/20 01:39:06;;;;;;;1.48;0.77;;;25.20;47.50;;;;;;5044224;28;20099;-64
2023/07/20 01:41:33;;;;;;;1.50;0.50;;;25.20;47.60;;;;;;5040201;28;20123;-62
2023/07/20 01:43:59;;;;;;;1.40;0.80;;;25.20;47.60;;;;;;5019013;28;20049;-61
2023/07/20 01:46:25;;;;;;;2.40;0.60;;;25.20;47.60;;;;;;5043937;28;20041;-64
2023/07/20 01:48:52;;;;;;;0.55;0.45;;;25.20;47.70;;;;;;5039322;28;20043;-61
2023/07/20 01:51:18;;;;;;;1.65;0.60;;;25.20;47.70;;;;;;5037628;28;20071;-64
2023/07/20 01:53:44;;;;;;;0.57;0.40;;;25.20;47.70;;;;;;5017026;28;20061;-64
2023/07/20 01:56:12;;;;;;;0.77;0.60;;;25.20;48.40;;;;;;5034348;28;20084;-61
2023/07/20 01:58:38;;;;;;;0.80;0.50;;;25.20;47.80;;;;;;5022524;28;20115;-62
2023/07/20 02:01:04;;;;;;;0.60;0.55;;;25.20;47.80;;;;;;5013422;28;20184;-64
2023/07/20 02:03:30;;;;;;;0.70;0.43;;;25.20;47.80;;;;;;5036820;28;20021;-64
2023/07/20 02:05:56;;;;;;;1.00;0.70;;;25.20;47.80;;;;;;5018274;28;20081;-61
2023/07/20 02:08:23;;;;;;;1.10;0.55;;;25.20;48.20;;;;;;5019491;28;20059;-61
2023/07/20 02:10:49;;;;;;;0.65;0.60;;;25.20;47.90;;;;;;5037718;28;20022;-61
2023/07/20 02:13:16;;;;;;;0.52;0.45;;;25.20;48.50;;;;;;5022172;28;20083;-64
2023/07/20 02:15:42;;;;;;;1.00;0.60;;;25.20;47.90;;;;;;5007628;28;20020;-64
2023/07/20 02:18:09;;;;;;;1.10;0.70;;;25.20;47.90;;;;;;5034123;28;20059;-62
2023/07/20 02:20:35;;;;;;;2.40;0.60;;;25.20;47.90;;;;;;5045609;28;20128;-63
2023/07/20 02:23:01;;;;;;;1.00;0.70;;;25.20;48.00;;;;;;5037479;28;20112;-64
2023/07/20 02:25:27;;;;;;;0.60;0.50;;;25.10;47.90;;;;;;5035614;28;20108;-64
2023/07/20 02:27:53;;;;;;;0.68;0.40;;;25.20;48.00;;;;;;5036528;28;20132;-65
2023/07/20 02:30:19;;;;;;;0.60;0.40;;;25.20;48.00;;;;;;5029135;28;20061;-61
2023/07/20 02:32:48;;;;;;;2.28;0.88;;;25.10;47.90;;;;;;5036293;28;20475;-63
2023/07/20 02:35:15;;;;;;;0.80;0.43;;;25.10;47.90;;;;;;5037916;28;21730;-64
2023/07/20 02:37:41;;;;;;;1.15;0.45;;;25.10;47.80;;;;;;5038248;28;20119;-64
2023/07/20 02:40:08;;;;;;;0.98;0.40;;;25.10;47.80;;;;;;5017335;28;20114;-64
2023/07/20 02:42:35;;;;;;;1.15;0.60;;;25.10;47.80;;;;;;5038295;28;20100;-63
2023/07/20 02:45:02;;;;;;;1.08;0.50;;;25.10;47.80;;;;;;5037489;28;20251;-64
2023/07/20 02:47:29;;;;;;;1.20;0.40;;;25.10;47.80;;;;;;5015947;28;20204;-64
2023/07/20 02:49:55;;;;;;;0.52;0.50;;;25.10;47.80;;;;;;5041306;28;20512;-61
2023/07/20 02:52:21;;;;;;;0.32;0.30;;;25.10;47.80;;;;;;5015967;28;20032;-63
2023/07/20 02:54:47;;;;;;;1.13;0.38;;;25.10;47.80;;;;;;5038539;28;20098;-62
2023/07/20 02:57:13;;;;;;;0.65;0.32;;;25.10;47.70;;;;;;5018273;28;20048;-64
2023/07/20 02:59:38;;;;;;;0.60;0.40;;;25.10;47.70;;;;;;5040721;28;20021;-61
2023/07/20 03:02:04;;;;;;;0.82;0.40;;;25.00;47.60;;;;;;5018115;28;20102;-63
2023/07/20 03:04:30;;;;;;;0.68;0.52;;;25.10;47.70;;;;;;5019378;28;20440;-62
2023/07/20 03:06:56;;;;;;;0.93;0.40;;;25.10;47.70;;;;;;5017392;28;20040;-63
2023/07/20 03:09:22;;;;;;;0.63;0.40;;;25.00;47.60;;;;;;5014174;28;20439;-62
2023/07/20 03:11:49;;;;;;;1.23;0.45;;;25.00;47.60;;;;;;5043621;28;20024;-62
2023/07/20 03:14:16;;;;;;;1.05;0.38;;;25.00;47.60;;;;;;5021924;28;20054;-64
2023/07/20 03:16:42;;;;;;;0.70;0.35;;;25.00;47.60;;;;;;5038167;28;20044;-62
2023/07/20 03:19:08;;;;;;;1.55;0.40;;;25.00;47.50;;;;;;5002158;28;20041;-62
2023/07/20 03:21:34;;;;;;;0.25;0.25;;;25.00;47.50;;;;;;5015939;28;20302;-64
2023/07/20 03:24:00;;;;;;;0.50;0.32;;;25.00;47.50;;;;;;5038098;28;20036;-60
2023/07/20 03:26:26;;;;;;;0.82;0.30;;;25.00;47.50;;;;;;5009102;28;20033;-60
2023/07/20 03:28:52;;;;;;;0.60;0.40;;;25.00;47.50;;;;;;5011898;28;20021;-64
2023/07/20 03:31:20;;;;;;;0.30;0.30;;;25.00;47.50;;;;;;5015493;28;20044;-64
2023/07/20 03:33:46;;;;;;;0.90;0.40;;;25.00;47.40;;;;;;5034102;28;20025;-64
2023/07/20 03:36:12;;;;;;;0.90;0.40;;;25.00;47.50;;;;;;5021454;28;20043;-62
2023/07/20 03:38:38;;;;;;;0.73;0.25;;;25.00;47.40;;;;;;5023160;28;20041;-61
2023/07/20 03:41:04;;;;;;;0.30;0.30;;;24.90;47.40;;;;;;5017433;28;20056;-65
2023/07/20 03:43:30;;;;;;;0.20;0.20;;;24.90;47.40;;;;;;5013292;28;20448;-64
2023/07/20 03:45:56;;;;;;;0.50;0.20;;;25.00;47.40;;;;;;5038779;28;20417;-61
2023/07/20 03:48:24;;;;;;;0.60;0.40;;;24.90;47.30;;;;;;5019275;28;20025;-64
2023/07/20 03:50:51;;;;;;;0.30;0.25;;;25.00;48.00;;;;;;5039196;28;20107;-62
2023/07/20 03:53:18;;;;;;;0.55;0.40;;;24.90;47.40;;;;;;5008442;28;20126;-64
2023/07/20 03:55:51;;;;;;;0.28;0.28;;;24.90;47.30;;;;;;5019162;28;20155;-65
2023/07/20 03:58:18;;;;;;;0.32;0.30;;;24.90;47.40;;;;;;5020900;28;20408;-61
2023/07/20 04:00:46;;;;;;;0.30;0.30;;;24.90;47.30;;;;;;5002995;28;20112;-65
2023/07/20 04:03:12;;;;;;;0.50;0.40;;;24.90;47.40;;;;;;5023187;28;20036;-64
2023/07/20 04:05:39;;;;;;;0.63;0.57;;;24.90;47.30;;;;;;5015143;28;20049;-63
2023/07/20 04:08:04;;;;;;;0.40;0.25;;;24.90;47.30;;;;;;5038038;28;20433;-62
2023/07/20 04:10:30;;;;;;;0.85;0.47;;;24.90;47.30;;;;;;5018354;28;20033;-63
2023/07/20 04:12:56;;;;;;;0.50;0.30;;;24.90;47.30;;;;;;5037117;28;20025;-62
2023/07/20 04:15:22;;;;;;;0.25;0.22;;;24.90;47.20;;;;;;5016423;28;20029;-64
2023/07/20 04:17:48;;;;;;;0.57;0.40;;;24.90;47.30;;;;;;5020133;28;20494;-61
2023/07/20 04:20:14;;;;;;;0.60;0.52;;;24.90;47.30;;;;;;5021287;28;20033;-62
2023/07/20 04:22:40;;;;;;;0.40;0.35;;;24.90;47.20;;;;;;5045758;28;21666;-64
2023/07/20 04:25:09;;;;;;;0.40;0.40;;;24.90;47.20;;;;;;5011552;28;20354;-62
2023/07/20 04:27:36;;;;;;;0.60;0.30;;;24.90;47.90;;;;;;5018149;28;20131;-62
2023/07/20 04:30:03;;;;;;;0.77;0.30;;;24.90;47.20;;;;;;5042959;28;20033;-62
2023/07/20 04:32:30;;;;;;;0.38;0.35;;;24.90;47.20;;;;;;5024172;28;20041;-63
2023/07/20 04:34:56;;;;;;;0.50;0.35;;;24.90;47.20;;;;;;5018923;28;20431;-64
2023/07/20 04:37:22;;;;;;;0.35;0.30;;;25.00;47.30;;;;;;5038616;28;20022;-63
2023/07/20 04:39:49;;;;;;;0.25;0.25;;;25.00;47.20;;;;;;5022581;28;20032;-65
2023/07/20 04:42:16;;;;;;;0.60;0.28;;;25.00;47.20;;;;;;5023479;28;20120;-62
2023/07/20 04:44:42;;;;;;;0.20;0.20;;;24.90;47.20;;;;;;5020376;28;20100;-64
2023/07/20 04:47:09;;;;;;;0.70;0.40;;;25.00;47.20;;;;;;5041510;28;20021;-65
2023/07/20 04:49:37;;;;;;;0.55;0.30;;;25.00;47.90;;;;;;5021129;28;20029;-64
2023/07/20 04:52:03;;;;;;;0.20;0.20;;;25.00;47.20;;;;;;5038968;28;20036;-63
2023/07/20 04:54:30;;;;;;;0.30;0.20;;;25.00;47.20;;;;;;5033811;28;20040;-61
2023/07/20 04:56:56;;;;;;;0.30;0.20;;;25.00;47.20;;;;;;5021459;28;20040;-62
2023/07/20 04:59:22;;;;;;;0.63;0.30;;;25.00;47.20;;;;;;5017981;28;20310;-64
2023/07/20 05:01:48;;;;;;;0.30;0.20;;;25.00;47.20;;;;;;5016825;28;20120;-62
2023/07/20 05:04:15;;;;;;;0.20;0.20;;;25.00;47.20;;;;;;5017771;28;20021;-62
2023/07/20 05:06:41;;;;;;;0.43;0.30;;;25.00;47.20;;;;;;5038604;28;20033;-64
2023/07/20 05:09:07;;;;;;;0.70;0.30;;;25.00;47.20;;;;;;5021921;28;20048;-62
2023/07/20 05:11:34;;;;;;;0.20;0.20;;;25.00;47.20;;;;;;5020500;28;20057;-63
2023/07/20 05:14:00;;;;;;;0.45;0.30;;;25.00;47.20;;;;;;5042910;28;20087;-63
2023/07/20 05:16:27;;;;;;;0.30;0.20;;;25.00;47.20;;;;;;5015525;28;20906;-61
2023/07/20 05:18:57;;;;;;;1.40;0.30;;;25.00;47.10;;;;;;5036713;28;20118;-61
2023/07/20 05:21:23;;;;;;;0.40;0.32;;;25.00;47.10;;;;;;5023185;28;20120;-63
2023/07/20 05:23:49;;;;;;;0.17;0.17;;;25.00;47.10;;;;;;5024222;28;20044;-62
2023/07/20 05:26:15;;;;;;;0.30;0.20;;;25.00;47.00;;;;;;5024484;28;20025;-64
2023/07/20 05:28:41;;;;;;;0.40;0.35;;;25.00;47.00;;;;;;5042758;28;20455;-64
2023/07/20 05:31:07;;;;;;;0.65;0.30;;;25.00;47.00;;;;;;5042786;28;20093;-62
2023/07/20 05:33:33;;;;;;;0.30;0.20;;;25.00;47.00;;;;;;5016170;28;20034;-64
2023/07/20 05:35:59;;;;;;;0.85;0.30;;;25.00;46.90;;;;;;5038089;28;20030;-64
2023/07/20 05:38:25;;;;;;;0.30;0.20;;;25.00;46.90;;;;;;5042639;28;20162;-62
2023/07/20 05:40:51;;;;;;;0.28;0.20;;;25.10;46.90;;;;;;5035128;28;20048;-61
2023/07/20 05:43:16;;;;;;;0.82;0.32;;;25.00;46.80;;;;;;5039571;28;20033;-61
2023/07/20 05:45:44;;;;;;;0.30;0.30;;;25.10;46.90;;;;;;5041407;28;20460;-61
2023/07/20 05:48:11;;;;;;;0.80;0.40;;;25.10;46.80;;;;;;5040753;28;20250;-61
2023/07/20 05:50:38;;;;;;;0.80;0.40;;;25.10;46.90;;;;;;5038387;28;20098;-63
2023/07/20 05:53:04;;;;;;;0.20;0.20;;;25.10;46.70;;;;;;5041399;28;20173;-62
2023/07/20 05:55:31;;;;;;;0.77;0.40;;;25.10;46.70;;;;;;5043249;28;20026;-64
2023/07/20 05:57:57;;;;;;;0.40;0.30;;;25.10;46.70;;;;;;5039893;28;20143;-62
2023/07/20 06:00:26;;;;;;;0.40;0.30;;;25.10;46.60;;;;;;5038627;28;20112;-61
2023/07/20 06:02:54;;;;;;;2.28;0.35;;;25.10;46.60;;;;;;5041732;28;20435;-61
2023/07/20 06:05:23;;;;;;;0.22;0.20;;;25.10;46.50;;;;;;5039276;28;20029;-62
2023/07/20 06:07:49;;;;;;;0.40;0.20;;;25.10;46.50;;;;;;5042222;28;20029;-62
2023/07/20 06:10:16;;;;;;;0.20;0.20;;;25.10;46.40;;;;;;5026966;28;20033;-65
2023/07/20 06:12:41;;;;;;;0.22;0.20;;;25.20;46.50;;;;;;5046952;28;20429;-64
2023/07/20 06:15:28;;;;;;;0.80;0.30;;;25.20;46.40;;;;;;5039250;28;20035;-63
2023/07/20 06:17:55;;;;;;;0.65;0.25;;;25.20;46.20;;;;;;5022302;28;20045;-63
2023/07/20 06:20:22;;;;;;;0.50;0.30;;;25.10;46.10;;;;;;5040696;28;20041;-64
2023/07/20 06:22:48;;;;;;;1.17;0.20;;;25.10;46.00;;;;;;5040854;28;20037;-62
2023/07/20 06:25:14;;;;;;;0.52;0.20;;;25.10;45.90;;;;;;5035421;28;20091;-62
2023/07/20 06:27:40;;;;;;;0.57;0.20;;;25.20;45.90;;;;;;5041811;28;20152;-61
2023/07/20 06:30:06;;;;;;;0.20;0.20;;;25.20;45.80;;;;;;5042020;28;20509;-64
2023/07/20 06:32:32;;;;;;;0.77;0.20;;;25.20;45.70;;;;;;5046864;28;20021;-64
2023/07/20 06:34:58;;;;;;;0.38;0.30;;;25.20;45.60;;;;;;5043826;28;20174;-62
2023/07/20 06:37:24;;;;;;;0.68;0.30;;;25.20;45.60;;;;;;5045964;28;20035;-60
2023/07/20 06:39:50;;;;;;;0.30;0.30;;;25.20;45.50;;;;;;5045011;28;20118;-63
2023/07/20 06:42:15;;;;;;;2.28;0.20;;;25.20;45.40;;;;;;5034448;28;20516;-61
2023/07/20 06:44:41;;;;;;;0.45;0.30;;;25.20;45.40;;;;;;5042191;28;20049;-63
2023/07/20 06:47:07;;;;;;;0.30;0.30;;;25.20;45.30;;;;;;5037616;28;20302;-62
2023/07/20 06:49:33;;;;;;;0.20;0.20;;;25.20;45.30;;;;;;5031938;28;20038;-62
2023/07/20 06:51:59;;;;;;;1.45;0.35;;;25.20;45.20;;;;;;5041681;28;20033;-62
2023/07/20 06:54:25;;;;;;;0.22;0.22;;;25.20;45.10;;;;;;5050699;28;20096;-62
2023/07/20 06:56:51;;;;;;;0.52;0.17;;;25.20;45.10;;;;;;5050858;28;20402;-61
2023/07/20 06:59:17;;;;;;;0.57;0.20;;;25.20;45.00;;;;;;5036721;28;20069;-63
2023/07/20 07:01:43;;;;;;;1.13;0.28;;;25.20;45.00;;;;;;5037976;28;20401;-61
2023/07/20 07:04:09;;;;;;;0.20;0.20;;;25.20;44.90;;;;;;5037723;28;20041;-64
2023/07/20 07:06:37;;;;;;;1.65;0.40;;;25.20;44.80;;;;;;5031172;28;20037;-61
2023/07/20 07:09:03;;;;;;;0.30;0.20;;;25.20;44.80;;;;;;5040446;28;20413;-61
2023/07/20 07:11:29;;;;;;;0.63;0.40;;;25.20;44.70;;;;;;5040093;28;20025;-63
2023/07/20 07:13:55;;;;;;;0.30;0.20;;;25.20;44.60;;;;;;5029421;28;20045;-63
2023/07/20 07:16:21;;;;;;;0.35;0.20;;;25.30;44.50;;;;;;5030443;28;20033;-63
2023/07/20 07:18:50;;;;;;;0.88;0.47;;;25.20;44.30;;;;;;5012625;28;20057;-63
2023/07/20 07:21:16;;;;;;;0.60;0.30;;;25.20;44.20;;;;;;5030853;28;20033;-61
2023/07/20 07:23:43;;;;;;;0.45;0.30;;;25.20;44.10;;;;;;5030943;28;20125;-63
2023/07/20 07:26:10;;;;;;;0.45;0.25;;;25.30;44.00;;;;;;5043209;28;20139;-63
2023/07/20 07:28:37;;;;;;;0.13;0.10;;;25.30;43.90;;;;;;5034434;28;20101;-59
2023/07/20 07:31:07;;;;;;;0.22;0.20;;;25.30;43.90;;;;;;5042028;28;20024;-61
2023/07/20 07:33:34;;;;;;;0.17;0.17;;;25.30;43.80;;;;;;5040556;28;20120;-64
2023/07/20 07:36:00;;;;;;;0.40;0.10;;;25.30;43.70;;;;;;5018100;28;20125;-62
2023/07/20 07:38:26;;;;;;;0.40;0.20;;;25.30;43.60;;;;;;5037616;28;20068;-63
2023/07/20 07:40:52;;;;;;;0.10;0.10;;;25.30;43.50;;;;;;5037310;28;20053;-63
2023/07/20 07:43:18;;;;;;;0.10;0.10;;;25.30;43.40;;;;;;5039756;28;20033;-61
2023/07/20 07:45:43;;;;;;;0.10;0.10;;;25.30;43.30;;;;;;5040930;28;20044;-61
2023/07/20 07:48:12;;;;;;;0.10;0.10;;;25.30;43.20;;;;;;5050315;28;20041;-64
2023/07/20 07:50:40;;;;;;;0.15;0.15;;;25.30;43.20;;;;;;5028753;28;20292;-62
2023/07/20 07:53:07;;;;;;;0.60;0.28;;;25.30;43.10;;;;;;5047056;28;20041;-63
2023/07/20 07:55:33;;;;;;;1.08;0.20;;;25.30;43.00;;;;;;5032451;28;20038;-62
2023/07/20 07:57:59;;;;;;;0.20;0.20;;;25.30;43.00;;;;;;5038746;28;20048;-62
2023/07/20 08:00:25;;;;;;;0.35;0.13;;;25.30;43.00;;;;;;5043200;28;20021;-64
2023/07/20 08:02:51;;;;;;;0.35;0.20;;;25.30;42.90;;;;;;5041136;28;20045;-63
2023/07/20 08:05:17;;;;;;;0.25;0.20;;;25.40;42.90;;;;;;5051769;28;20033;-62
2023/07/20 08:07:43;;;;;;;0.40;0.20;;;25.40;42.90;;;;;;5044685;28;20028;-64
2023/07/20 08:10:09;;;;;;;0.90;0.20;;;25.40;42.80;;;;;;5053892;28;20409;-64
2023/07/20 08:12:35;;;;;;;1.00;0.30;;;25.40;42.70;;;;;;5052966;28;20110;-65
2023/07/20 08:15:02;;;;;;;0.30;0.20;;;25.40;42.70;;;;;;5053313;28;20052;-63
2023/07/20 08:17:28;;;;;;;0.40;0.20;;;25.40;42.60;;;;;;5047496;28;20025;-62
2023/07/20 08:19:54;;;;;;;0.28;0.20;;;25.40;42.50;;;;;;5053647;28;20123;-62
2023/07/20 08:22:19;;;;;;;0.35;0.20;;;25.40;42.30;;;;;;5053930;28;20108;-61
2023/07/20 08:24:45;;;;;;;0.63;0.20;;;25.50;42.30;;;;;;5054043;28;20036;-64
2023/07/20 08:27:11;;;;;;;0.17;0.10;;;25.50;42.20;;;;;;5053522;28;20051;-63
2023/07/20 08:29:40;;;;;;;0.40;0.13;;;25.50;42.10;;;;;;5053892;28;20342;-63
2023/07/20 08:32:06;;;;;;;0.25;0.20;;;25.50;42.10;;;;;;5031246;28;20029;-63
2023/07/20 08:34:33;;;;;;;0.32;0.20;;;25.50;42.00;;;;;;5049377;28;20041;-63
2023/07/20 08:36:59;;;;;;;0.80;0.32;;;25.50;41.90;;;;;;5047475;28;20037;-64
2023/07/20 08:39:25;;;;;;;0.22;0.20;;;25.50;41.80;;;;;;5023967;28;20332;-65
2023/07/20 08:41:54;;;;;;;0.10;0.10;;;25.50;41.80;;;;;;5047725;28;20077;-66
2023/07/20 08:44:20;;;;;;;0.35;0.22;;;25.50;41.70;;;;;;5047466;28;20095;-64
2023/07/20 08:46:48;;;;;;;0.50;0.20;;;25.50;41.60;;;;;;5048232;28;20261;-66
2023/07/20 08:49:17;;;;;;;0.25;0.15;;;25.50;41.40;;;;;;5045235;28;20078;-63
2023/07/20 08:51:45;;;;;;;0.35;0.22;;;25.50;41.30;;;;;;5049042;28;20025;-62
2023/07/20 08:54:12;;;;;;;0.20;0.20;;;25.50;41.20;;;;;;5026297;28;20326;-61
2023/07/20 08:56:40;;;;;;;0.30;0.20;;;25.50;41.10;;;;;;5044454;28;20037;-64
2023/07/20 08:59:07;;;;;;;0.20;0.20;;;25.50;41.00;;;;;;5043759;28;20060;-63
2023/07/20 09:01:38;;;;;;;0.20;0.20;;;25.50;40.90;;;;;;5046867;28;20029;-64
2023/07/20 09:04:04;;;;;;;0.70;0.20;;;25.50;40.80;;;;;;5044608;28;20021;-64
2023/07/20 09:06:30;;;;;;;0.15;0.15;;;25.50;40.70;;;;;;5044379;28;20059;-64
2023/07/20 09:08:56;;;;;;;0.25;0.13;;;25.50;40.50;;;;;;5045337;28;20047;-61
2023/07/20 09:11:22;;;;;;;0.40;0.10;;;25.50;40.40;;;;;;5048272;28;20031;-62
2023/07/20 09:14:02;;;;;;;0.10;0.10;;;25.50;40.30;;;;;;5042879;28;20021;-62
2023/07/20 09:16:29;;;;;;;0.65;0.30;;;25.60;40.20;;;;;;5046046;28;20075;-62
2023/07/20 09:18:58;;;;;;;0.20;0.20;;;25.60;40.20;;;;;;5045461;28;20037;-61
2023/07/20 09:21:28;;;;;;;0.45;0.20;;;25.60;40.10;;;;;;5026519;28;20041;-61
2023/07/20 09:23:56;;;;;;;0.30;0.20;;;25.60;40.10;;;;;;5041357;28;20298;-62
2023/07/20 09:26:22;;;;;;;0.17;0.17;;;25.60;40.00;;;;;;5034131;28;20074;-60
2023/07/20 09:28:52;;;;;;;0.10;0.10;;;25.60;40.00;;;;;;5014835;28;20033;-60
2023/07/20 09:31:20;;;;;;;0.30;0.28;;;25.60;39.90;;;;;;5033108;28;20037;-60
2023/07/20 09:33:51;;;;;;;0.88;0.22;;;25.60;39.90;;;;;;5034632;28;20057;-63
2023/07/20 09:36:17;;;;;;;0.63;0.38;;;25.70;39.90;;;;;;5032865;28;20048;-63
2023/07/20 09:38:43;;;;;;;0.38;0.20;;;25.70;39.90;;;;;;5051548;28;20421;-62
2023/07/20 09:41:15;;;;;;;0.10;0.10;;;25.70;39.80;;;;;;5033266;28;20390;-62
2023/07/20 09:43:42;;;;;;;0.20;0.20;;;25.70;39.80;;;;;;5021088;28;20057;-63
2023/07/20 09:46:08;;;;;;;0.40;0.10;;;25.70;39.70;;;;;;5036555;28;20071;-64
2023/07/20 09:48:34;;;;;;;0.30;0.30;;;25.70;39.60;;;;;;5042331;28;20318;-62
2023/07/20 09:51:00;;;;;;;0.57;0.30;;;25.70;39.60;;;;;;5044805;28;20029;-63
2023/07/20 09:53:27;;;;;;;0.30;0.20;;;25.70;39.50;;;;;;5025284;28;20646;-61
2023/07/20 09:55:54;;;;;;;0.85;0.20;;;25.70;39.50;;;;;;5044966;28;20036;-61
2023/07/20 09:58:20;;;;;;;0.15;0.15;;;25.80;39.50;;;;;;5043171;28;20044;-63
2023/07/20 10:00:50;;;;;;;0.20;0.20;;;25.70;39.40;;;;;;5043717;28;20062;-60
2023/07/20 10:03:25;;;;;;;0.20;0.20;;;25.80;39.40;;;;;;5044009;28;20021;-58
2023/07/20 10:06:04;;;;;;;0.30;0.28;;;25.80;39.40;;;;;;5047640;28;20061;-62
2023/07/20 10:08:31;;;;;;;0.40;0.10;;;25.70;39.20;;;;;;5044008;28;20033;-64
2023/07/20 10:11:02;;;;;;;0.35;0.30;;;25.80;39.30;;;;;;5039944;28;20441;-62
2023/07/20 10:13:30;;;;;;;0.30;0.20;;;25.80;39.60;;;;;;5050037;28;20475;-63
2023/07/20 10:16:02;;;;;;;0.45;0.20;;;25.80;39.50;;;;;;5016703;28;20055;-61
2023/07/20 10:18:45;;;;;;;0.85;0.30;;;25.70;39.30;;;;;;5047476;28;20079;-62
2023/07/20 10:21:12;;;;;;;0.40;0.13;;;25.80;39.30;;;;;;5041929;28;20041;-60
2023/07/20 10:23:39;;;;;;;0.40;0.15;;;25.80;39.20;;;;;;5042643;28;20036;-63
2023/07/20 10:26:05;;;;;;;0.68;0.22;;;25.80;39.10;;;;;;5046933;28;20052;-61
2023/07/20 10:28:32;;;;;;;0.10;0.10;;;25.80;39.00;;;;;;5042426;28;20346;-63
2023/07/20 10:30:58;;;;;;;0.52;0.10;;;25.80;38.90;;;;;;5043834;28;20028;-62
2023/07/20 10:33:24;;;;;;;0.40;0.20;;;25.80;39.00;;;;;;5036388;28;20100;-63
2023/07/20 10:36:00;;;;;;;0.30;0.20;;;25.80;39.00;;;;;;5046215;28;20112;-61
2023/07/20 10:38:48;;;;;;;0.52;0.30;;;25.80;39.10;;;;;;5048340;28;20389;-62
2023/07/20 10:41:40;;;;;;;0.50;0.30;;;25.90;39.20;;;;;;5035836;28;20364;-61
2023/07/20 10:44:10;;;;;;;0.35;0.30;;;25.90;39.20;;;;;;5045540;28;20037;-61
2023/07/20 10:46:40;;;;;;;0.20;0.20;;;25.80;39.20;;;;;;5042933;28;20144;-64
2023/07/20 10:49:10;;;;;;;;;;;25.80;39.20;;;;;;5046911;28;20040;-64
2023/07/20 10:51:40;;;;;;;0.32;0.20;;;25.90;39.20;;;;;;5031377;28;19997;-62
2023/07/20 10:54:29;;;;;;;0.22;0.20;;;25.90;39.30;;;;;;5043451;28;20087;-62
2023/07/20 10:56:57;;;;;;;0.55;0.30;;;25.90;39.30;;;;;;5030744;28;20120;-63
2023/07/20 10:59:23;;;;;;;0.20;0.20;;;25.90;39.30;;;;;;5036397;28;20119;-63
2023/07/20 11:01:50;;;;;;;0.32;0.25;;;25.90;39.30;;;;;;5049559;28;20093;-62
2023/07/20 11:04:18;;;;;;;0.35;0.10;;;25.90;39.20;;;;;;5043290;28;20223;-63
2023/07/20 11:06:45;;;;;;;0.10;0.10;;;25.90;39.20;;;;;;5023353;28;20054;-63
2023/07/20 11:09:16;;;;;;;0.30;0.30;;;25.90;39.10;;;;;;5045709;28;20480;-61
2023/07/20 11:11:44;;;;;;;0.30;0.10;;;25.90;39.00;;;;;;5029485;28;20085;-62
2023/07/20 11:14:34;;;;;;;0.13;0.13;;;25.90;38.90;;;;;;5045575;28;20021;-60
2023/07/20 11:17:13;;;;;;;0.20;0.20;;;26.00;38.80;;;;;;5016865;28;20028;-62
2023/07/20 11:19:42;;;;;;;0.10;0.10;;;26.00;38.70;;;;;;5040443;28;20109;-62
2023/07/20 11:22:09;;;;;;;0.32;0.20;;;26.00;38.70;;;;;;5041679;28;20037;-61
2023/07/20 11:24:39;;;;;;;0.20;0.20;;;25.90;38.60;;;;;;5043751;28;20444;-62
2023/07/20 11:27:05;;;;;;;0.43;0.20;;;25.90;38.50;;;;;;5038932;28;20037;-61
2023/07/20 11:29:31;;;;;;;0.32;0.28;;;25.90;38.50;;;;;;5041324;28;20114;-63
2023/07/20 11:31:58;;;;;;;1.00;0.30;;;26.00;38.60;;;;;;5023442;28;20061;-61
2023/07/20 11:34:24;;;;;;;0.30;0.25;;;26.00;38.50;;;;;;5046135;28;20294;-60
2023/07/20 11:36:51;;;;;;;0.25;0.20;;;25.90;38.50;;;;;;5048025;28;20029;-63
2023/07/20 11:39:21;;;;;;;0.50;0.10;;;25.90;38.40;;;;;;5027769;28;20041;-63
2023/07/20 11:42:06;;;;;;;0.20;0.20;;;26.00;38.60;;;;;;5049457;28;20152;-63
2023/07/20 11:44:32;;;;;;;0.35;0.20;;;25.90;38.40;;;;;;5045772;28;20051;-62
2023/07/20 11:47:12;;;;;;;0.35;0.30;;;26.00;38.50;;;;;;5041272;28;20042;-64
2023/07/20 11:49:42;;;;;;;0.25;0.25;;;25.90;38.40;;;;;;5028694;28;20124;-62
2023/07/20 11:52:15;;;;;;;0.38;0.30;;;26.00;38.60;;;;;;5045500;28;20044;-62
2023/07/20 11:54:42;;;;;;;0.10;0.10;;;26.00;38.60;;;;;;5049354;28;20059;-60
2023/07/20 11:57:15;;;;;;;0.40;0.22;;;26.00;38.60;;;;;;5042125;28;20036;-60
2023/07/20 11:59:55;;;;;;;0.60;0.32;;;26.00;38.70;;;;;;5044836;28;20044;-63
2023/07/20 12:02:21;;;;;;;0.47;0.25;;;26.00;38.70;;;;;;5048886;28;20379;-62
2023/07/20 12:04:48;;;;;;;0.52;0.28;;;26.00;38.70;;;;;;5022855;28;20029;-62
2023/07/20 12:07:14;;;;;;;0.73;0.20;;;26.00;38.70;;;;;;5047485;28;20101;-62
2023/07/20 12:09:40;;;;;;;0.10;0.10;;;26.00;38.70;;;;;;5027841;28;20349;-62
2023/07/20 12:12:13;;;;;;;0.65;0.25;;;26.00;38.70;;;;;;5008767;28;20077;-61
2023/07/20 12:14:39;;;;;;;0.73;0.40;;;26.00;38.70;;;;;;5046570;28;20119;-63
2023/07/20 12:17:07;;;;;;;0.13;0.13;;;26.00;38.80;;;;;;5040699;28;20116;-61
2023/07/20 12:19:38;;;;;;;0.30;0.30;;;26.00;38.90;;;;;;5054655;28;20040;-62
2023/07/20 12:22:05;;;;;;;0.28;0.20;;;26.00;39.20;;;;;;5054424;28;20033;-60
2023/07/20 12:24:31;;;;;;;0.65;0.30;;;26.00;39.40;;;;;;5051353;28;20067;-61
2023/07/20 12:26:58;;;;;;;0.57;0.20;;;26.10;39.60;;;;;;5047556;28;20060;-62
2023/07/20 12:29:24;;;;;;;0.40;0.20;;;26.00;39.70;;;;;;5044372;28;20048;-61
2023/07/20 12:31:50;;;;;;;0.28;0.20;;;26.10;39.80;;;;;;5040560;28;20032;-63
2023/07/20 12:34:16;;;;;;;1.50;0.30;;;26.10;39.80;;;;;;5048424;28;20110;-62
2023/07/20 12:36:41;;;;;;;0.28;0.20;;;26.10;39.80;;;;;;5044399;28;20037;-62
2023/07/20 12:39:07;;;;;;;0.32;0.20;;;26.10;39.90;;;;;;5046513;28;20037;-62
2023/07/20 12:41:33;;;;;;;0.40;0.20;;;26.10;39.90;;;;;;5042794;28;20235;-63
2023/07/20 12:44:00;;;;;;;0.35;0.22;;;26.10;39.80;;;;;;5045966;28;20029;-61
2023/07/20 12:46:27;;;;;;;0.20;0.20;;;26.10;39.80;;;;;;5046301;28;20123;-63
2023/07/20 12:48:54;;;;;;;0.57;0.20;;;26.10;39.80;;;;;;5046379;28;20158;-60
2023/07/20 12:51:19;;;;;;;0.25;0.25;;;26.10;39.70;;;;;;5036451;28;20029;-65